createdAt,value
2023-04-24T00:01:40.917Z,100.00
2023-04-24T00:04:12.007Z,100.00
2023-04-24T00:06:39.736Z,100.00
2023-04-24T00:09:07.336Z,100.00
2023-04-24T00:11:34.593Z,100.00
2023-04-24T00:14:02.380Z,100.00
2023-04-24T00:16:29.877Z,100.00
2023-04-24T00:18:57.190Z,100.00
2023-04-24T00:21:26.797Z,100.00
2023-04-24T00:23:54.266Z,100.00
2023-04-24T00:26:21.555Z,100.00
2023-04-24T00:28:48.830Z,100.00
2023-04-24T00:31:16.051Z,100.00
2023-04-24T00:33:43.539Z,100.00
2023-04-24T00:36:10.785Z,100.00
2023-04-24T00:38:38.031Z,100.00
2023-04-24T00:41:05.363Z,100.00
2023-04-24T00:43:32.888Z,100.00
2023-04-24T00:46:02.726Z,100.00
2023-04-24T00:48:30.154Z,100.00
2023-04-24T00:50:58.328Z,100.00
2023-04-24T00:53:25.774Z,100.00
2023-04-24T00:55:53.059Z,100.00
2023-04-24T00:58:20.530Z,100.00
2023-04-24T01:00:48.276Z,100.00
2023-04-24T01:03:15.772Z,100.00
2023-04-24T01:05:43.408Z,100.00
2023-04-24T01:08:11.077Z,100.00
2023-04-24T01:10:38.575Z,100.00
2023-04-24T01:13:05.932Z,100.00
2023-04-24T01:15:33.160Z,100.00
2023-04-24T01:18:00.536Z,100.00
2023-04-24T01:20:27.926Z,100.00
2023-04-24T01:22:58.298Z,100.00
2023-04-24T01:25:26.303Z,100.00
2023-04-24T01:27:53.707Z,100.00
2023-04-24T01:30:20.978Z,100.00
2023-04-24T01:32:48.499Z,100.00
2023-04-24T01:35:15.860Z,100.00
2023-04-24T01:37:43.232Z,100.00
2023-04-24T01:40:10.680Z,100.00
2023-04-24T01:42:38.289Z,100.00
2023-04-24T01:45:06.405Z,100.00
2023-04-24T01:47:33.939Z,100.00
2023-04-24T01:50:01.230Z,100.00
2023-04-24T01:52:29.931Z,100.00
2023-04-24T01:54:57.184Z,100.00
2023-04-24T01:57:24.449Z,100.00
2023-04-24T01:59:52.226Z,100.00
2023-04-24T02:02:19.580Z,100.00
2023-04-24T02:04:46.949Z,100.00
2023-04-24T02:07:14.266Z,100.00
2023-04-24T02:09:42.088Z,100.00
2023-04-24T02:12:10.667Z,100.00
2023-04-24T02:14:37.936Z,100.00
2023-04-24T02:17:05.958Z,100.00
2023-04-24T02:19:33.645Z,100.00
2023-04-24T02:22:00.868Z,100.00
2023-04-24T02:24:28.154Z,100.00
2023-04-24T02:26:55.801Z,100.00
2023-04-24T02:29:23.784Z,100.00
2023-04-24T02:31:51.134Z,100.00
2023-04-24T02:34:18.419Z,100.00
2023-04-24T02:36:45.631Z,100.00
2023-04-24T02:39:12.903Z,100.00
2023-04-24T02:41:40.190Z,100.00
2023-04-24T02:44:07.425Z,100.00
2023-04-24T02:46:34.660Z,100.00
2023-04-24T02:49:01.923Z,100.00
2023-04-24T02:51:29.773Z,100.00
2023-04-24T02:53:57.002Z,100.00
2023-04-24T02:56:24.238Z,100.00
2023-04-24T02:58:51.587Z,100.00
2023-04-24T03:01:19.066Z,100.00
2023-04-24T03:03:46.485Z,100.00
2023-04-24T03:06:13.950Z,100.00
2023-04-24T03:08:41.165Z,100.00
2023-04-24T03:11:08.551Z,100.00
2023-04-24T03:13:36.045Z,100.00
2023-04-24T03:16:03.341Z,100.00
2023-04-24T03:18:31.541Z,100.00
2023-04-24T03:20:58.824Z,100.00
2023-04-24T03:23:26.126Z,100.00
2023-04-24T03:25:53.381Z,100.00
2023-04-24T03:28:20.768Z,100.00
2023-04-24T03:30:48.180Z,100.00
2023-04-24T03:33:15.764Z,100.00
2023-04-24T03:35:43.028Z,100.00
2023-04-24T03:38:10.456Z,100.00
2023-04-24T03:40:38.014Z,100.00
2023-04-24T03:43:05.226Z,100.00
2023-04-24T03:45:32.501Z,100.00
2023-04-24T03:47:59.773Z,100.00
2023-04-24T03:50:27.746Z,100.00
2023-04-24T03:52:55.070Z,100.00
2023-04-24T03:55:22.290Z,100.00
2023-04-24T03:57:49.531Z,100.00
2023-04-24T04:00:16.890Z,100.00
2023-04-24T04:02:44.328Z,100.00
2023-04-24T04:05:11.755Z,100.00
2023-04-24T04:07:39.706Z,100.00
2023-04-24T04:10:08.121Z,100.00
2023-04-24T04:12:35.504Z,100.00
2023-04-24T04:15:03.565Z,100.00
2023-04-24T04:17:30.977Z,100.00
2023-04-24T04:19:58.397Z,100.00
2023-04-24T04:22:25.598Z,100.00
2023-04-24T04:24:52.839Z,100.00
2023-04-24T04:27:20.082Z,100.00
2023-04-24T04:29:47.696Z,100.00
2023-04-24T04:32:15.007Z,100.00
2023-04-24T04:34:42.834Z,100.00
2023-04-24T04:37:12.172Z,100.00
2023-04-24T04:39:39.695Z,100.00
2023-04-24T04:42:07.789Z,100.00
2023-04-24T04:44:36.959Z,100.00
2023-04-24T04:47:06.882Z,100.00
2023-04-24T04:49:34.098Z,100.00
2023-04-24T04:52:01.479Z,100.00
2023-04-24T04:54:28.869Z,100.00
2023-04-24T04:56:56.503Z,100.00
2023-04-24T04:59:23.719Z,100.00
2023-04-24T05:01:50.989Z,100.00
2023-04-24T05:04:18.516Z,100.00
2023-04-24T05:06:45.922Z,100.00
2023-04-24T05:09:13.385Z,100.00
2023-04-24T05:11:40.891Z,100.00
2023-04-24T05:14:08.160Z,100.00
2023-04-24T05:16:35.613Z,100.00
2023-04-24T05:19:02.903Z,100.00
2023-04-24T05:21:30.501Z,100.00
2023-04-24T05:23:57.803Z,100.00
2023-04-24T05:26:25.285Z,100.00
2023-04-24T05:28:52.677Z,100.00
2023-04-24T05:31:20.056Z,100.00
2023-04-24T05:33:47.288Z,100.00
2023-04-24T05:36:14.695Z,100.00
2023-04-24T05:38:41.973Z,100.00
2023-04-24T05:41:09.264Z,100.00
2023-04-24T05:43:36.653Z,100.00
2023-04-24T05:46:03.891Z,100.00
2023-04-24T05:48:31.849Z,100.00
2023-04-24T05:50:59.092Z,100.00
2023-04-24T05:53:26.374Z,99.88
2023-04-24T05:55:53.608Z,96.22
2023-04-24T05:58:21.003Z,98.78
2023-04-24T06:00:48.988Z,96.19
2023-04-24T06:03:16.817Z,97.24
2023-04-24T06:05:44.219Z,95.50
2023-04-24T06:08:12.044Z,92.08
2023-04-24T06:10:39.271Z,93.23
2023-04-24T06:13:06.588Z,92.62
2023-04-24T06:15:34.187Z,90.35
2023-04-24T06:18:01.748Z,92.87
2023-04-24T06:20:29.289Z,89.98
2023-04-24T06:22:56.639Z,91.64
2023-04-24T06:25:26.626Z,88.95
2023-04-24T06:27:53.973Z,89.64
2023-04-24T06:30:21.257Z,87.23
2023-04-24T06:32:48.581Z,88.16
2023-04-24T06:35:15.935Z,85.09
2023-04-24T06:37:43.499Z,84.42
2023-04-24T06:40:10.956Z,81.30
2023-04-24T06:42:38.322Z,79.46
2023-04-24T06:45:06.513Z,79.92
2023-04-24T06:47:34.626Z,77.09
2023-04-24T06:50:01.908Z,75.01
2023-04-24T06:52:29.309Z,73.42
2023-04-24T06:55:02.165Z,71.88
2023-04-24T06:57:29.946Z,70.20
2023-04-24T06:59:57.184Z,71.51
2023-04-24T07:02:24.697Z,69.26
2023-04-24T07:04:52.186Z,70.65
2023-04-24T07:07:19.468Z,68.86
2023-04-24T07:09:47.057Z,68.04
2023-04-24T07:12:15.540Z,65.65
2023-04-24T07:14:42.897Z,64.89
2023-04-24T07:17:10.109Z,62.22
2023-04-24T07:19:37.406Z,62.09
2023-04-24T07:22:04.649Z,66.28
2023-04-24T07:24:33.354Z,62.40
2023-04-24T07:27:02.121Z,60.40
2023-04-24T07:29:29.696Z,62.92
2023-04-24T07:31:57.680Z,58.13
2023-04-24T07:34:25.198Z,59.91
2023-04-24T07:36:52.497Z,57.66
2023-04-24T07:39:19.728Z,61.74
2023-04-24T07:41:46.976Z,56.34
2023-04-24T07:44:14.206Z,54.20
2023-04-24T07:46:41.651Z,57.45
2023-04-24T07:49:13.514Z,56.88
2023-04-24T07:51:42.501Z,55.13
2023-04-24T07:54:10.092Z,52.72
2023-04-24T07:56:40.148Z,53.12
2023-04-24T07:59:07.784Z,53.84
2023-04-24T08:01:35.519Z,53.56
2023-04-24T08:04:03.216Z,53.34
2023-04-24T08:06:31.630Z,52.46
2023-04-24T08:08:59.295Z,53.49
2023-04-24T08:11:26.956Z,52.73
2023-04-24T08:13:55.569Z,49.85
2023-04-24T08:16:24.911Z,53.15
2023-04-24T08:18:52.612Z,55.75
2023-04-24T08:21:20.843Z,51.80
2023-04-24T08:23:48.239Z,49.59
2023-04-24T08:26:15.466Z,48.28
2023-04-24T08:28:42.746Z,50.76
2023-04-24T08:31:10.781Z,52.31
2023-04-24T08:33:38.225Z,52.61
2023-04-24T08:36:06.295Z,51.12
2023-04-24T08:38:34.069Z,49.04
2023-04-24T08:41:01.893Z,47.41
2023-04-24T08:43:29.486Z,50.17
2023-04-24T08:45:57.556Z,48.69
2023-04-24T08:48:30.878Z,47.84
2023-04-24T08:50:59.251Z,47.30
2023-04-24T08:53:27.026Z,45.98
2023-04-24T08:55:55.635Z,45.05
2023-04-24T08:58:23.254Z,42.95
2023-04-24T09:00:50.750Z,41.41
2023-04-24T09:03:18.520Z,41.70
2023-04-24T09:05:47.260Z,39.07
2023-04-24T09:08:14.951Z,37.95
2023-04-24T09:10:42.522Z,37.06
2023-04-24T09:13:11.232Z,35.61
2023-04-24T09:15:39.310Z,35.95
2023-04-24T09:18:06.664Z,35.50
2023-04-24T09:20:34.404Z,34.64
2023-04-24T09:23:01.608Z,35.20
2023-04-24T09:25:33.412Z,34.66
2023-04-24T09:28:04.798Z,33.38
2023-04-24T09:30:32.823Z,34.39
2023-04-24T09:33:17.053Z,33.98
2023-04-24T09:35:51.009Z,34.28
2023-04-24T09:38:18.357Z,34.57
2023-04-24T09:40:45.566Z,35.48
2023-04-24T09:43:12.864Z,36.31
2023-04-24T09:45:41.019Z,37.32
2023-04-24T09:48:11.949Z,38.80
2023-04-24T09:50:39.410Z,38.24
2023-04-24T09:53:09.741Z,38.29
2023-04-24T09:55:41.030Z,37.26
2023-04-24T09:58:08.918Z,37.53
2023-04-24T10:00:36.529Z,37.02
2023-04-24T10:03:04.914Z,37.37
2023-04-24T10:05:34.483Z,38.56
2023-04-24T10:08:09.393Z,37.05
2023-04-24T10:10:45.502Z,37.97
2023-04-24T10:13:13.992Z,40.06
2023-04-24T10:15:42.098Z,39.34
2023-04-24T10:18:10.008Z,39.38
2023-04-24T10:20:38.934Z,41.98
2023-04-24T10:23:06.510Z,41.36
2023-04-24T10:25:35.336Z,40.75
2023-04-24T10:28:03.371Z,41.01
2023-04-24T10:30:35.935Z,41.69
2023-04-24T10:33:07.837Z,40.09
2023-04-24T10:35:37.125Z,41.01
2023-04-24T10:38:14.401Z,40.48
2023-04-24T10:40:41.796Z,40.99
2023-04-24T10:43:11.472Z,42.11
2023-04-24T10:45:39.639Z,43.06
2023-04-24T10:48:15.078Z,43.02
2023-04-24T10:50:52.081Z,41.92
2023-04-24T10:53:20.606Z,41.06
2023-04-24T10:55:47.730Z,41.05
2023-04-24T10:58:16.023Z,39.70
2023-04-24T11:00:43.975Z,41.02
2023-04-24T11:03:28.417Z,40.97
2023-04-24T11:06:00.289Z,41.11
2023-04-24T11:08:32.227Z,39.55
2023-04-24T11:11:00.599Z,37.27
2023-04-24T11:13:50.374Z,34.69
2023-04-24T11:16:27.689Z,33.60
2023-04-24T11:19:08.245Z,33.92
2023-04-24T11:21:44.742Z,35.25
2023-04-24T11:24:38.177Z,38.32
2023-04-24T11:27:05.324Z,34.80
2023-04-24T11:30:01.765Z,33.52
2023-04-24T11:32:43.055Z,30.31
2023-04-24T11:35:18.683Z,29.92
2023-04-24T11:38:18.639Z,29.11
2023-04-24T11:40:41.430Z,29.40
2023-04-24T11:43:08.753Z,29.08
2023-04-24T11:45:36.077Z,29.58
2023-04-24T11:48:04.430Z,29.23
2023-04-24T11:50:31.875Z,30.13
2023-04-24T11:53:01.351Z,30.46
2023-04-24T11:55:29.368Z,30.51
2023-04-24T11:57:58.212Z,29.99
2023-04-24T12:00:37.708Z,28.70
2023-04-24T12:03:09.834Z,28.87
2023-04-24T12:05:37.582Z,29.72
2023-04-24T12:08:06.026Z,29.93
2023-04-24T12:10:33.922Z,29.04
2023-04-24T12:13:01.552Z,28.43
2023-04-24T12:15:29.494Z,28.88
2023-04-24T12:17:57.117Z,28.01
2023-04-24T12:20:32.194Z,29.54
2023-04-24T12:23:03.029Z,30.79
2023-04-24T12:25:31.844Z,31.46
2023-04-24T12:28:05.471Z,30.15
2023-04-24T12:30:34.404Z,32.63
2023-04-24T12:33:02.005Z,33.73
2023-04-24T12:35:30.525Z,34.88
2023-04-24T12:37:57.777Z,32.33
2023-04-24T12:40:26.275Z,31.25
2023-04-24T12:42:54.696Z,28.50
2023-04-24T12:45:24.876Z,28.89
2023-04-24T12:47:52.226Z,28.29
2023-04-24T12:50:19.610Z,27.21
2023-04-24T12:52:47.052Z,27.11
2023-04-24T12:55:14.351Z,29.42
2023-04-24T12:57:41.855Z,29.59
2023-04-24T13:00:09.539Z,28.45
2023-04-24T13:02:37.697Z,28.26
2023-04-24T13:05:05.641Z,28.80
2023-04-24T13:07:32.997Z,30.94
2023-04-24T13:10:00.333Z,32.07
2023-04-24T13:12:27.698Z,32.59
2023-04-24T13:14:55.038Z,33.50
2023-04-24T13:17:22.824Z,33.96
2023-04-24T13:19:50.590Z,35.47
2023-04-24T13:22:19.676Z,35.61
2023-04-24T13:24:46.944Z,37.57
2023-04-24T13:27:14.282Z,37.75
2023-04-24T13:29:41.564Z,39.18
2023-04-24T13:32:09.361Z,39.12
2023-04-24T13:34:37.770Z,39.51
2023-04-24T13:37:05.340Z,38.71
2023-04-24T13:39:32.722Z,38.29
2023-04-24T13:42:00.452Z,37.29
2023-04-24T13:44:28.438Z,37.61
2023-04-24T13:46:57.727Z,35.08
2023-04-24T13:49:26.373Z,32.51
2023-04-24T13:51:54.663Z,31.30
2023-04-24T13:54:22.024Z,30.47
2023-04-24T13:56:49.325Z,30.76
2023-04-24T13:59:16.531Z,30.98
2023-04-24T14:01:46.032Z,30.64
2023-04-24T14:04:13.673Z,30.43
2023-04-24T14:06:42.346Z,30.42
2023-04-24T14:09:09.660Z,31.15
2023-04-24T14:11:36.908Z,32.03
2023-04-24T14:14:04.381Z,32.53
2023-04-24T14:16:31.757Z,34.23
2023-04-24T14:18:59.262Z,35.39
2023-04-24T14:21:26.499Z,35.38
2023-04-24T14:23:53.746Z,36.06
2023-04-24T14:26:21.119Z,37.91
2023-04-24T14:28:48.351Z,38.35
2023-04-24T14:31:15.827Z,37.84
2023-04-24T14:33:43.348Z,38.56
2023-04-24T14:36:10.768Z,41.02
2023-04-24T14:38:38.052Z,39.70
2023-04-24T14:41:13.972Z,39.59
2023-04-24T14:43:41.685Z,42.08
2023-04-24T14:46:08.983Z,41.97
2023-04-24T14:48:36.358Z,40.88
2023-04-24T14:51:03.734Z,41.47
2023-04-24T14:53:31.095Z,42.06
2023-04-24T14:55:58.423Z,42.66
2023-04-24T14:58:25.757Z,42.97
2023-04-24T15:00:55.403Z,45.84
2023-04-24T15:03:24.032Z,42.44
2023-04-24T15:05:51.938Z,42.85
2023-04-24T15:08:19.250Z,41.24
2023-04-24T15:10:46.548Z,40.90
2023-04-24T15:13:13.889Z,42.01
2023-04-24T15:15:41.107Z,42.20
2023-04-24T15:18:09.438Z,43.87
2023-04-24T15:20:38.825Z,42.99
2023-04-24T15:23:12.241Z,44.67
2023-04-24T15:25:39.596Z,47.99
2023-04-24T15:28:07.241Z,47.36
2023-04-24T15:30:34.713Z,45.56
2023-04-24T15:33:02.813Z,47.19
2023-04-24T15:35:30.407Z,47.18
2023-04-24T15:37:57.664Z,43.75
2023-04-24T15:40:25.042Z,44.24
2023-04-24T15:42:52.292Z,44.97
2023-04-24T15:45:19.702Z,43.76
2023-04-24T15:47:49.791Z,43.40
2023-04-24T15:50:17.256Z,44.99
2023-04-24T15:52:44.542Z,43.24
2023-04-24T15:55:11.806Z,43.23
2023-04-24T15:57:39.916Z,45.66
2023-04-24T16:00:07.668Z,46.14
2023-04-24T16:02:35.461Z,48.42
2023-04-24T16:05:03.231Z,48.84
2023-04-24T16:07:31.528Z,48.67
2023-04-24T16:09:58.734Z,49.31
2023-04-24T16:12:29.254Z,50.67
2023-04-24T16:14:56.810Z,52.72
2023-04-24T16:17:24.040Z,55.15
2023-04-24T16:19:51.328Z,54.73
2023-04-24T16:22:18.587Z,56.25
2023-04-24T16:24:47.986Z,56.99
2023-04-24T16:27:15.808Z,58.27
2023-04-24T16:29:43.172Z,59.91
2023-04-24T16:32:11.065Z,61.48
2023-04-24T16:34:38.406Z,61.36
2023-04-24T16:37:06.579Z,60.78
2023-04-24T16:39:35.131Z,61.19
2023-04-24T16:42:02.509Z,61.15
2023-04-24T16:44:30.904Z,62.07
2023-04-24T16:46:58.123Z,63.94
2023-04-24T16:49:26.478Z,65.37
2023-04-24T16:51:53.696Z,66.23
2023-04-24T16:54:20.968Z,66.44
2023-04-24T16:56:48.323Z,67.12
2023-04-24T16:59:15.568Z,67.21
2023-04-24T17:01:43.125Z,69.14
2023-04-24T17:04:10.430Z,70.24
2023-04-24T17:06:37.985Z,69.65
2023-04-24T17:09:05.550Z,70.91
2023-04-24T17:11:32.752Z,70.26
2023-04-24T17:14:00.069Z,72.10
2023-04-24T17:16:27.714Z,72.72
2023-04-24T17:18:54.996Z,73.32
2023-04-24T17:21:22.374Z,74.28
2023-04-24T17:23:49.807Z,75.40
2023-04-24T17:26:17.036Z,75.66
2023-04-24T17:28:44.325Z,75.40
2023-04-24T17:31:11.653Z,76.79
2023-04-24T17:33:38.986Z,77.89
2023-04-24T17:36:07.318Z,78.45
2023-04-24T17:38:34.725Z,79.07
2023-04-24T17:41:01.930Z,79.46
2023-04-24T17:43:29.427Z,79.76
2023-04-24T17:45:56.872Z,79.89
2023-04-24T17:48:25.173Z,81.21
2023-04-24T17:50:52.517Z,80.78
2023-04-24T17:53:20.080Z,81.17
2023-04-24T17:55:47.662Z,82.19
2023-04-24T17:58:15.229Z,82.41
2023-04-24T18:00:42.640Z,83.31
2023-04-24T18:03:10.467Z,82.41
2023-04-24T18:05:38.567Z,83.20
2023-04-24T18:08:06.368Z,83.75
2023-04-24T18:10:36.145Z,84.58
2023-04-24T18:13:04.153Z,85.07
2023-04-24T18:15:31.803Z,85.71
2023-04-24T18:17:59.284Z,86.66
2023-04-24T18:20:26.847Z,86.83
2023-04-24T18:22:54.321Z,87.25
2023-04-24T18:25:26.584Z,87.03
2023-04-24T18:27:55.289Z,88.34
2023-04-24T18:30:23.172Z,89.06
2023-04-24T18:32:50.898Z,89.37
2023-04-24T18:35:19.208Z,89.28
2023-04-24T18:37:46.762Z,90.20
2023-04-24T18:40:14.627Z,89.40
2023-04-24T18:42:41.919Z,89.93
2023-04-24T18:45:11.345Z,90.46
2023-04-24T18:47:40.611Z,91.01
2023-04-24T18:50:08.378Z,91.32
2023-04-24T18:52:35.907Z,91.40
2023-04-24T18:55:04.069Z,91.22
2023-04-24T18:57:31.533Z,89.86
2023-04-24T18:59:58.813Z,90.05
2023-04-24T19:02:26.200Z,91.14
2023-04-24T19:04:53.477Z,91.14
2023-04-24T19:07:21.879Z,92.01
2023-04-24T19:09:49.491Z,92.27
2023-04-24T19:12:17.337Z,92.81
2023-04-24T19:14:45.836Z,92.08
2023-04-24T19:17:13.131Z,92.50
2023-04-24T19:19:40.388Z,92.16
2023-04-24T19:22:07.894Z,93.32
2023-04-24T19:24:35.482Z,92.59
2023-04-24T19:27:02.800Z,93.79
2023-04-24T19:29:30.069Z,94.03
2023-04-24T19:31:58.761Z,93.45
2023-04-24T19:34:26.241Z,93.07
2023-04-24T19:36:53.581Z,92.59
2023-04-24T19:39:21.060Z,93.99
2023-04-24T19:41:48.356Z,94.25
2023-04-24T19:44:17.327Z,94.84
2023-04-24T19:46:44.687Z,94.87
2023-04-24T19:49:12.594Z,94.11
2023-04-24T19:51:39.896Z,94.44
2023-04-24T19:54:07.646Z,94.75
2023-04-24T19:56:34.973Z,95.26
2023-04-24T19:59:02.333Z,95.06
2023-04-24T20:01:29.908Z,93.82
2023-04-24T20:03:57.622Z,95.44
2023-04-24T20:06:25.003Z,95.21
2023-04-24T20:08:52.209Z,94.84
2023-04-24T20:11:19.549Z,95.57
2023-04-24T20:13:46.926Z,95.08
2023-04-24T20:16:14.132Z,95.28
2023-04-24T20:18:41.815Z,94.38
2023-04-24T20:21:09.358Z,94.86
2023-04-24T20:23:36.666Z,96.08
2023-04-24T20:26:05.048Z,96.42
2023-04-24T20:28:32.461Z,96.45
2023-04-24T20:31:00.443Z,96.95
2023-04-24T20:33:28.593Z,97.08
2023-04-24T20:35:56.261Z,97.44
2023-04-24T20:38:24.452Z,98.00
2023-04-24T20:43:26.606Z,96.06
2023-04-24T20:45:56.400Z,96.99
2023-04-24T20:48:23.618Z,95.88
2023-04-24T20:50:53.625Z,96.41
2023-04-24T20:53:23.689Z,96.59
2023-04-24T20:55:50.907Z,96.68
2023-04-24T20:58:18.881Z,97.14
2023-04-24T21:00:47.064Z,98.56
2023-04-24T21:03:15.219Z,98.10
2023-04-24T21:05:42.796Z,98.69
2023-04-24T21:08:10.051Z,95.88
2023-04-24T21:10:37.367Z,97.84
2023-04-24T21:13:04.946Z,98.09
2023-04-24T21:15:33.441Z,98.76
2023-04-24T21:18:02.554Z,99.28
2023-04-24T21:20:29.888Z,100.00
2023-04-24T21:22:57.186Z,99.37
2023-04-24T21:25:24.511Z,97.09
2023-04-24T21:27:51.728Z,98.53
2023-04-24T21:30:19.097Z,98.60
2023-04-24T21:32:46.393Z,99.58
2023-04-24T21:35:13.700Z,99.86
2023-04-24T21:37:41.078Z,100.00
2023-04-24T21:40:11.349Z,100.00
2023-04-24T21:42:40.096Z,100.00
2023-04-24T21:45:07.910Z,100.00
2023-04-24T21:47:36.057Z,100.00
2023-04-24T21:50:04.508Z,100.00
2023-04-24T21:52:32.292Z,100.00
2023-04-24T21:54:59.554Z,100.00
2023-04-24T21:57:26.810Z,100.00
2023-04-24T21:59:54.067Z,100.00
2023-04-24T22:02:21.447Z,100.00
2023-04-24T22:04:50.438Z,100.00
2023-04-24T22:07:17.957Z,100.00
2023-04-24T22:09:45.304Z,100.00
2023-04-24T22:12:12.635Z,100.00
2023-04-24T22:14:39.929Z,100.00
2023-04-24T22:17:07.331Z,100.00
2023-04-24T22:19:34.624Z,100.00
2023-04-24T22:22:02.107Z,100.00
2023-04-24T22:24:29.496Z,100.00
2023-04-24T22:26:56.710Z,100.00
2023-04-24T22:29:23.945Z,100.00
2023-04-24T22:31:51.384Z,100.00
2023-04-24T22:34:19.719Z,100.00
2023-04-24T22:36:46.993Z,100.00
2023-04-24T22:39:17.533Z,100.00
2023-04-24T22:41:44.823Z,100.00
2023-04-24T22:44:12.097Z,100.00
2023-04-24T22:46:39.375Z,100.00
2023-04-24T22:49:06.723Z,100.00
2023-04-24T22:51:35.227Z,100.00
2023-04-24T22:54:03.736Z,100.00
2023-04-24T22:56:31.752Z,100.00
2023-04-24T22:59:00.288Z,100.00
2023-04-24T23:01:27.628Z,100.00
2023-04-24T23:03:55.264Z,100.00
2023-04-24T23:06:22.622Z,100.00
2023-04-24T23:08:49.908Z,100.00
2023-04-24T23:11:17.336Z,100.00
2023-04-24T23:13:44.868Z,100.00
2023-04-24T23:16:12.219Z,100.00
2023-04-24T23:18:39.635Z,100.00
2023-04-24T23:21:06.881Z,100.00
2023-04-24T23:23:34.141Z,100.00
2023-04-24T23:26:01.518Z,100.00
2023-04-24T23:28:28.989Z,100.00
2023-04-24T23:30:56.259Z,100.00
2023-04-24T23:33:23.575Z,100.00
2023-04-24T23:35:51.249Z,100.00
2023-04-24T23:38:18.697Z,100.00
2023-04-24T23:40:46.201Z,100.00
2023-04-24T23:43:13.421Z,100.00
2023-04-24T23:45:40.761Z,100.00
2023-04-24T23:48:08.117Z,100.00
2023-04-24T23:50:35.615Z,100.00
2023-04-24T23:53:02.844Z,100.00
2023-04-24T23:55:30.517Z,100.00
2023-04-24T23:57:57.804Z,100.00
